Time;durP1;ratioP1;P1;durP2;ratioP2;P2;SDS_P1;SDS_P2;PMS_P1;PMS_P2;Temp;Humidity;BMP_temperature;BMP_pressure;BME280_temperature;BME280_humidity;BME280_pressure;Samples;Min_cycle;Max_cycle;Signal;HPM_P1;HPM_P2
2021/11/21 00:02:08;;;;;;;;;;;;;;;-144.99;100.00;52574.47;5050698;28;19981;-78
2021/11/21 00:04:36;;;;;;;;;;;;;;;-144.99;100.00;52578.53;5048871;28;19988;-78
2021/11/21 00:07:02;;;;;;;;;;;;;;;-144.99;100.00;52607.09;5052168;28;19984;-77
2021/11/21 00:09:29;;;;;;;;;;;;;;;-144.99;100.00;52623.38;5049449;28;20106;-78
2021/11/21 00:11:56;;;;;;;;;;;;;;;-144.99;100.00;52598.94;5049893;28;19993;-78
2021/11/21 00:14:22;;;;;;;;;;;;;;;-144.99;100.00;52635.63;5047628;28;20434;-79
2021/11/21 00:16:52;;;;;;;;;;;;;;;-144.99;100.00;52611.16;5051252;28;20012;-78
2021/11/21 00:19:19;;;;;;;;;;;;;;;-144.99;100.00;52651.94;5050406;28;20008;-78
2021/11/21 00:21:45;;;;;;;;;;;;;;;-144.99;100.00;52586.69;5051323;28;19977;-79
2021/11/21 00:24:12;;;;;;;;;;;;;;;-144.99;100.00;52627.47;5048713;28;20038;-77
2021/11/21 00:26:38;;;;;;;;;;;;;;;-144.99;100.00;52598.94;5048385;28;20043;-78
2021/11/21 00:29:05;;;;;;;;;;;;;;;-144.99;100.00;52594.84;5047373;28;20501;-77
2021/11/21 00:31:32;;;;;;;;;;;;;;;-144.99;100.00;52631.53;5053433;28;20083;-77
2021/11/21 00:34:00;;;;;;;;;;;;;;;-144.99;100.00;52615.25;5051605;28;19974;-78
2021/11/21 00:36:26;;;;;;;;;;;;;;;-144.99;100.00;52603.00;5054330;28;19977;-77
2021/11/21 00:38:53;;;;;;;;;;;;;;;-144.99;100.00;52580.59;5046503;28;20066;-79
2021/11/21 00:41:19;;;;;;;;;;;;;;;-144.99;100.00;52600.97;5053491;28;20046;-78
2021/11/21 00:43:46;;;;;;;;;;;;;;;-144.99;100.00;52607.09;5052758;28;19977;-80
2021/11/21 00:46:13;;;;;;;;;;;;;;;-144.99;100.00;52611.16;5054663;28;19988;-78
2021/11/21 00:48:39;;;;;;;;;;;;;;;-144.99;100.00;52598.94;5056765;28;20015;-78
2021/11/21 00:51:07;;;;;;;;;;;;;;;-144.99;100.00;52603.00;5056110;28;20074;-80
2021/11/21 00:53:36;;;;;;;;;;;;;;;-144.99;100.00;52609.13;5054291;28;19977;-79
2021/11/21 00:56:04;;;;;;;;;;;;;;;-144.99;100.00;52603.00;5049662;28;19974;-76
2021/11/21 00:58:32;;;;;;;;;;;;;;;-144.99;100.00;52580.59;5061087;28;19996;-79
2021/11/21 01:00:59;;;;;;;;;;;;;;;-144.99;100.00;52647.84;5061732;28;19989;-78
2021/11/21 01:03:26;;;;;;;;;;;;;;;-144.99;100.00;52603.00;5064589;28;20463;-79
2021/11/21 01:05:54;;;;;;;;;;;;;;;-144.99;100.00;52643.78;5063476;28;19995;-77
2021/11/21 01:08:22;;;;;;;;;;;;;;;-144.99;100.00;52594.84;5059328;28;20047;-76
2021/11/21 01:10:50;;;;;;;;;;;;;;;-144.99;100.00;52641.72;5052681;28;20500;-77
2021/11/21 01:13:19;;;;;;;;;;;;;;;-144.99;100.00;52635.63;5056896;28;19977;-79
2021/11/21 01:15:46;;;;;;;;;;;;;;;-144.99;100.00;52607.09;5036798;28;20355;-76
2021/11/21 01:18:13;;;;;;;;;;;;;;;-144.99;100.00;52611.16;5055002;28;19997;-79
2021/11/21 01:20:41;;;;;;;;;;;;;;;-144.99;100.00;52625.44;5051030;28;19985;-80
2021/11/21 01:23:08;;;;;;;;;;;;;;;-144.99;100.00;52611.16;5055946;28;20013;-78
2021/11/21 01:25:36;;;;;;;;;;;;;;;-144.99;100.00;52619.31;5050860;28;19981;-77
2021/11/21 01:28:03;;;;;;;;;;;;;;;-144.99;100.00;52603.00;5055206;28;19989;-77
2021/11/21 01:30:30;;;;;;;;;;;;;;;-144.99;100.00;52633.59;5060029;28;19978;-79
2021/11/21 01:32:57;;;;;;;;;;;;;;;-144.99;100.00;52598.94;5055214;28;19997;-78
2021/11/21 01:35:24;;;;;;;;;;;;;;;-144.99;100.00;52611.16;5057217;28;19973;-77
2021/11/21 01:37:50;;;;;;;;;;;;;;;-144.99;100.00;52605.03;5061120;28;19981;-80
2021/11/21 01:40:18;;;;;;;;;;;;;;;-144.99;100.00;52615.25;5050147;28;20027;-79
2021/11/21 01:42:47;;;;;;;;;;;;;;;-144.99;100.00;52623.38;5064004;28;19985;-81
2021/11/21 01:45:14;;;;;;;;;;;;;;;-144.99;100.00;52607.09;5064417;28;19985;-80
2021/11/21 01:47:42;;;;;;;;;;;;;;;-144.99;100.00;52594.84;5052263;28;19973;-80
2021/11/21 01:50:09;;;;;;;;;;;;;;;-144.99;100.00;52643.78;5063087;28;19989;-80
2021/11/21 01:52:36;;;;;;;;;;;;;;;-144.99;100.00;52586.69;5055935;28;19993;-80
2021/11/21 01:55:03;;;;;;;;;;;;;;;-144.99;100.00;52605.03;5051637;28;20071;-81
2021/11/21 01:57:29;;;;;;;;;;;;;;;-144.99;100.00;52603.00;5052163;28;20432;-80
2021/11/21 02:00:01;;;;;;;;;;;;;;;-144.99;100.00;52633.59;5051032;28;20001;-78
2021/11/21 02:02:27;;;;;;;;;;;;;;;-144.99;100.00;52603.00;5050794;28;19977;-78
2021/11/21 02:04:54;;;;;;;;;;;;;;;-144.99;100.00;52631.53;5052147;28;19989;-80
2021/11/21 02:07:21;;;;;;;;;;;;;;;-144.99;100.00;52639.69;5051470;28;19977;-78
2021/11/21 02:09:47;;;;;;;;;;;;;;;-144.99;100.00;52603.00;5049093;28;20017;-78
2021/11/21 02:12:14;;;;;;;;;;;;;;;-144.99;100.00;52621.34;5049845;28;19997;-79
2021/11/21 02:14:40;;;;;;;;;;;;;;;-144.99;100.00;52603.00;5048554;28;20079;-79
2021/11/21 02:17:08;;;;;;;;;;;;;;;-144.99;100.00;52594.84;5050140;28;20027;-78
2021/11/21 02:19:35;;;;;;;;;;;;;;;-144.99;100.00;52668.22;5049399;28;20011;-79
2021/11/21 02:22:03;;;;;;;;;;;;;;;-144.99;100.00;52590.78;5054753;28;20035;-78
2021/11/21 02:24:30;;;;;;;;;;;;;;;-144.99;100.00;52594.84;5053904;28;19981;-81
2021/11/21 02:26:56;;;;;;;;;;;;;;;-144.99;100.00;52617.28;5045151;28;20338;-80
2021/11/21 02:29:23;;;;;;;;;;;;;;;-144.99;100.00;52637.66;4703729;28;10000211;-79
2021/11/21 02:31:49;;;;;;;;;;;;;;;-144.99;100.00;52621.34;5051668;28;19993;-77
2021/11/21 02:34:16;;;;;;;;;;;;;;;-144.99;100.00;52617.28;5053643;28;19985;-81
2021/11/21 02:36:43;;;;;;;;;;;;;;;-144.99;100.00;52598.94;5053002;28;19977;-80
2021/11/21 02:39:11;;;;;;;;;;;;;;;-144.99;100.00;52627.47;5053828;28;20409;-80
2021/11/21 02:41:38;;;;;;;;;;;;;;;-144.99;100.00;52647.84;5062535;22;19994;-66
2021/11/21 02:44:05;;;;;;;;;;;;;;;-144.99;100.00;52574.47;5051662;28;20509;-68
2021/11/21 02:46:32;;;;;;;;;;;;;;;-144.99;100.00;52603.00;5053877;28;19977;-66
2021/11/21 02:48:58;;;;;;;;;;;;;;;-144.99;100.00;52558.16;5049209;28;19978;-70
2021/11/21 02:51:25;;;;;;;;;;;;;;;-144.99;100.00;52611.16;5053431;28;20063;-68
2021/11/21 02:53:54;;;;;;;;;;;;;;;-144.99;100.00;52645.81;5052949;28;19989;-69
2021/11/21 02:56:22;;;;;;;;;;;;;;;-144.99;100.00;52584.66;5059858;28;19973;-69
2021/11/21 02:58:49;;;;;;;;;;;;;;;-144.99;100.00;52619.31;5062498;28;19974;-68
2021/11/21 03:01:18;;;;;;;;;;;;;;;-144.99;100.00;52615.25;5061748;28;19982;-67
2021/11/21 03:03:44;;;;;;;;;;;;;;;-144.99;100.00;52613.19;5049135;28;20001;-67
2021/11/21 03:06:12;;;;;;;;;;;;;;;-144.99;100.00;52619.31;5050718;28;20503;-67
2021/11/21 03:08:38;;;;;;;;;;;;;;;-144.99;100.00;52594.84;5049455;28;20026;-69
2021/11/21 03:11:15;;;;;;;;;;;;;;;-144.99;100.00;52582.63;5046936;28;19996;-68
2021/11/21 03:13:44;;;;;;;;;;;;;;;-144.99;100.00;52611.16;5044087;28;20533;-68
2021/11/21 03:16:10;;;;;;;;;;;;;;;-144.99;100.00;52603.00;5049741;28;19973;-67
2021/11/21 03:18:37;;;;;;;;;;;;;;;-144.99;100.00;52603.00;5048558;28;19980;-69
2021/11/21 03:21:04;;;;;;;;;;;;;;;-144.99;100.00;52613.19;5047679;28;20029;-68
2021/11/21 03:23:30;;;;;;;;;;;;;;;-144.99;100.00;52594.84;5050056;28;19993;-68
2021/11/21 03:25:57;;;;;;;;;;;;;;;-144.99;100.00;52643.78;5048371;28;19979;-68
2021/11/21 03:28:23;;;;;;;;;;;;;;;-144.99;100.00;52578.53;5048820;28;20116;-69
2021/11/21 03:30:51;;;;;;;;;;;;;;;-144.99;100.00;52615.25;5047487;28;19977;-68
2021/11/21 03:33:18;;;;;;;;;;;;;;;-144.99;100.00;52603.00;5049995;28;19993;-68
2021/11/21 03:35:45;;;;;;;;;;;;;;;-144.99;100.00;52586.69;5052998;28;19977;-68
2021/11/21 03:38:11;;;;;;;;;;;;;;;-144.99;100.00;52629.50;5055543;28;19974;-69
2021/11/21 03:40:38;;;;;;;;;;;;;;;-144.99;100.00;52631.53;5057993;28;19988;-69
2021/11/21 03:43:04;;;;;;;;;;;;;;;-144.99;100.00;52578.53;5062808;28;20493;-68
2021/11/21 03:45:32;;;;;;;;;;;;;;;-144.99;100.00;52625.44;5062527;28;19984;-65
2021/11/21 03:48:00;;;;;;;;;;;;;;;-144.99;100.00;52619.31;5064265;28;20015;-66
2021/11/21 03:50:27;;;;;;;;;;;;;;;-144.99;100.00;52609.13;5063971;28;19977;-67
2021/11/21 03:52:54;;;;;;;;;;;;;;;-144.99;100.00;52623.38;5058095;28;20043;-67
2021/11/21 03:55:20;;;;;;;;;;;;;;;-144.99;100.00;52582.63;5057333;28;20035;-66
2021/11/21 03:57:48;;;;;;;;;;;;;;;-144.99;100.00;52598.94;5053058;28;19996;-66
2021/11/21 04:00:15;;;;;;;;;;;;;;;-144.99;100.00;52615.25;5047915;28;19980;-65
2021/11/21 04:02:42;;;;;;;;;;;;;;;-144.99;100.00;52603.00;5048909;28;19998;-65
2021/11/21 04:05:11;;;;;;;;;;;;;;;-144.99;100.00;52619.31;5049925;28;19973;-67
2021/11/21 04:07:39;;;;;;;;;;;;;;;-144.99;100.00;52582.63;5047170;28;19981;-66
2021/11/21 04:10:06;;;;;;;;;;;;;;;-144.99;100.00;52603.00;5044161;28;20023;-66
2021/11/21 04:12:34;;;;;;;;;;;;;;;-144.99;100.00;52643.78;5046761;28;20047;-67
2021/11/21 04:15:00;;;;;;;;;;;;;;;-144.99;100.00;52643.78;5046775;28;20377;-67
2021/11/21 04:17:27;;;;;;;;;;;;;;;-144.99;100.00;52623.38;5048055;28;20451;-67
2021/11/21 04:19:54;;;;;;;;;;;;;;;-144.99;100.00;52574.47;5049051;28;19977;-67
2021/11/21 04:22:22;;;;;;;;;;;;;;;-144.99;100.00;52611.16;5046661;28;20504;-65
2021/11/21 04:24:49;;;;;;;;;;;;;;;-144.99;100.00;52590.78;5046517;28;19978;-65
2021/11/21 04:27:15;;;;;;;;;;;;;;;-144.99;100.00;52603.00;5044585;28;20372;-65
2021/11/21 04:29:42;;;;;;;;;;;;;;;-144.99;100.00;52607.09;5039694;28;19974;-64
2021/11/21 04:32:09;;;;;;;;;;;;;;;-144.99;100.00;52623.38;5051835;28;19993;-65
2021/11/21 04:34:35;;;;;;;;;;;;;;;-144.99;100.00;52607.09;5051061;28;19999;-65
2021/11/21 04:37:02;;;;;;;;;;;;;;;-144.99;100.00;52603.00;5049229;28;20072;-65
2021/11/21 04:39:30;;;;;;;;;;;;;;;-144.99;100.00;52607.09;5047150;28;20433;-66
2021/11/21 04:41:57;;;;;;;;;;;;;;;-144.99;100.00;52623.38;5044735;28;19981;-65
2021/11/21 04:44:24;;;;;;;;;;;;;;;-144.99;100.00;52611.16;5046500;28;20043;-64
2021/11/21 04:46:50;;;;;;;;;;;;;;;-144.99;100.00;52615.25;5065633;28;19977;-64
2021/11/21 04:49:17;;;;;;;;;;;;;;;-144.99;100.00;52623.38;5070100;28;19961;-63
2021/11/21 04:51:43;;;;;;;;;;;;;;;-144.99;100.00;52627.47;5060501;28;20037;-67
2021/11/21 04:54:14;;;;;;;;;;;;;;;-144.99;100.00;52613.19;5051592;28;19997;-66
2021/11/21 04:56:42;;;;;;;;;;;;;;;-144.99;100.00;52656.00;5047049;28;20426;-66
2021/11/21 04:59:09;;;;;;;;;;;;;;;-144.99;100.00;52631.53;5046658;28;19974;-66
2021/11/21 05:01:35;;;;;;;;;;;;;;;-144.99;100.00;52629.50;5044094;28;19978;-67
2021/11/21 05:04:02;;;;;;;;;;;;;;;-144.99;100.00;52611.16;5045634;28;20046;-66
2021/11/21 05:06:28;;;;;;;;;;;;;;;-144.99;100.00;52598.94;5045834;28;19957;-70
2021/11/21 05:08:55;;;;;;;;;;;;;;;-144.99;100.00;52607.09;5046314;28;20337;-69
2021/11/21 05:11:21;;;;;;;;;;;;;;;-144.99;100.00;52631.53;5045679;28;20409;-69
2021/11/21 05:13:49;;;;;;;;;;;;;;;-144.99;100.00;52603.00;5045437;28;19992;-65
2021/11/21 05:16:17;;;;;;;;;;;;;;;-144.99;100.00;52623.38;5046189;28;20426;-65
2021/11/21 05:18:44;;;;;;;;;;;;;;;-144.99;100.00;52611.16;5047238;28;20533;-66
2021/11/21 05:21:10;;;;;;;;;;;;;;;-144.99;100.00;52586.69;5046332;28;19973;-67
2021/11/21 05:23:37;;;;;;;;;;;;;;;-144.99;100.00;52623.38;5046034;28;19996;-66
2021/11/21 05:26:03;;;;;;;;;;;;;;;-144.99;100.00;52625.44;5047070;28;20031;-66
2021/11/21 05:28:30;;;;;;;;;;;;;;;-144.99;100.00;52570.38;5045380;28;20359;-66
2021/11/21 05:30:58;;;;;;;;;;;;;;;-144.99;100.00;52623.38;5045028;28;19991;-67
2021/11/21 05:33:24;;;;;;;;;;;;;;;-144.99;100.00;52619.31;5045874;28;20004;-67
2021/11/21 05:35:51;;;;;;;;;;;;;;;-144.99;100.00;52635.63;5043282;28;20034;-66
2021/11/21 05:38:17;;;;;;;;;;;;;;;-144.99;100.00;52629.50;5050706;28;20034;-66
2021/11/21 05:40:44;;;;;;;;;;;;;;;-144.99;100.00;52584.66;5062977;28;19981;-67
2021/11/21 05:43:11;;;;;;;;;;;;;;;-144.99;100.00;52603.00;5060292;28;20000;-68
2021/11/21 05:45:37;;;;;;;;;;;;;;;-144.99;100.00;52635.63;5061127;28;19974;-67
2021/11/21 05:48:05;;;;;;;;;;;;;;;-144.99;100.00;52635.63;5058189;28;19973;-67
2021/11/21 05:50:32;;;;;;;;;;;;;;;-144.99;100.00;52635.63;5048366;28;19985;-66
2021/11/21 05:52:58;;;;;;;;;;;;;;;-144.99;100.00;52611.16;5045359;28;19993;-67
2021/11/21 05:55:25;;;;;;;;;;;;;;;-144.99;100.00;52613.19;5045431;28;20008;-67
2021/11/21 05:57:52;;;;;;;;;;;;;;;-144.99;100.00;52617.28;5045533;28;19988;-69
2021/11/21 06:00:20;;;;;;;;;;;;;;;-144.99;100.00;52656.00;5046236;28;19973;-67
2021/11/21 06:02:46;;;;;;;;;;;;;;;-144.99;100.00;52586.69;5046934;28;19993;-66
2021/11/21 06:05:14;;;;;;;;;;;;;;;-144.99;100.00;52607.09;5046350;28;19974;-66
2021/11/21 06:07:41;;;;;;;;;;;;;;;-144.99;100.00;52603.00;5046148;28;19936;-68
2021/11/21 06:10:08;;;;;;;;;;;;;;;-144.99;100.00;52615.25;5046031;28;20130;-66
2021/11/21 06:12:35;;;;;;;;;;;;;;;-144.99;100.00;52603.00;5040147;28;20440;-66
2021/11/21 06:15:01;;;;;;;;;;;;;;;-144.99;100.00;52594.84;5045556;28;20189;-66
2021/11/21 06:17:28;;;;;;;;;;;;;;;-144.99;100.00;52680.47;5047082;28;20022;-67
2021/11/21 06:19:55;;;;;;;;;;;;;;;-144.99;100.00;52619.31;5044968;28;20044;-67
2021/11/21 06:22:24;;;;;;;;;;;;;;;-144.99;100.00;52651.94;5045454;28;19985;-66
2021/11/21 06:24:50;;;;;;;;;;;;;;;-144.99;100.00;52623.38;5043898;28;19973;-68
2021/11/21 06:27:17;;;;;;;;;;;;;;;-144.99;100.00;52631.53;5044228;28;20034;-67
2021/11/21 06:29:44;;;;;;;;;;;;;;;-144.99;100.00;52651.94;5045374;28;20133;-68
2021/11/21 06:32:10;;;;;;;;;;;;;;;-144.99;100.00;52615.25;5046372;28;20067;-68
2021/11/21 06:34:37;;;;;;;;;;;;;;;-144.99;100.00;52619.31;5045984;28;20024;-68
2021/11/21 06:37:04;;;;;;;;;;;;;;;-144.99;100.00;52623.38;5049969;28;19973;-67
2021/11/21 06:39:33;;;;;;;;;;;;;;;-144.99;100.00;52603.00;5050386;28;19984;-67
2021/11/21 06:41:59;;;;;;;;;;;;;;;-144.99;100.00;52590.78;5065642;28;19978;-68
2021/11/21 06:44:26;;;;;;;;;;;;;;;-144.99;100.00;52590.78;5063121;28;20104;-71
2021/11/21 06:46:53;;;;;;;;;;;;;;;-144.99;100.00;52627.47;5056151;28;19981;-69
2021/11/21 06:49:19;;;;;;;;;;;;;;;-144.99;100.00;52607.09;5048295;28;19981;-67
2021/11/21 06:51:46;;;;;;;;;;;;;;;-144.99;100.00;52627.47;5049419;28;19977;-65
2021/11/21 06:54:14;;;;;;;;;;;;;;;-144.99;100.00;52594.84;5050131;28;19993;-67
2021/11/21 06:56:42;;;;;;;;;;;;;;;-144.99;100.00;52619.31;5050249;28;20076;-65
2021/11/21 06:59:09;;;;;;;;;;;;;;;-144.99;100.00;52594.84;5048172;28;19974;-67
2021/11/21 07:01:37;;;;;;;;;;;;;;;-144.99;100.00;52627.47;5049760;28;19985;-66
2021/11/21 07:04:04;;;;;;;;;;;;;;;-144.99;100.00;52619.31;5048837;28;19993;-66
2021/11/21 07:06:34;;;;;;;;;;;;;;;-144.99;100.00;52600.97;5049276;28;19977;-67
2021/11/21 07:09:01;;;;;;;;;;;;;;;-144.99;100.00;52594.84;5049884;28;19974;-66
2021/11/21 07:11:28;;;;;;;;;;;;;;;-144.99;100.00;52627.47;5049395;28;19981;-67
2021/11/21 07:13:56;;;;;;;;;;;;;;;-144.99;100.00;52594.84;5048460;28;20054;-66
2021/11/21 07:16:22;;;;;;;;;;;;;;;-144.99;100.00;52605.03;5046806;28;19980;-66
2021/11/21 07:18:49;;;;;;;;;;;;;;;-144.99;100.00;52639.69;5045491;28;20430;-66
2021/11/21 07:21:16;;;;;;;;;;;;;;;-144.99;100.00;52633.59;5047189;28;20447;-66
2021/11/21 07:23:42;;;;;;;;;;;;;;;-144.99;100.00;52623.38;5048814;28;19989;-66
2021/11/21 07:26:09;;;;;;;;;;;;;;;-144.99;100.00;52651.94;5044171;28;19960;-67
2021/11/21 07:28:36;;;;;;;;;;;;;;;-144.99;100.00;52631.53;5046330;28;19978;-67
2021/11/21 07:31:04;;;;;;;;;;;;;;;-144.99;100.00;52619.31;5046928;28;19980;-67
2021/11/21 07:33:31;;;;;;;;;;;;;;;-144.99;100.00;52598.94;5047365;28;20571;-67
2021/11/21 07:35:57;;;;;;;;;;;;;;;-144.99;100.00;52619.31;5047738;28;19981;-67
2021/11/21 07:38:24;;;;;;;;;;;;;;;-144.99;100.00;52662.13;5048703;28;19973;-67
2021/11/21 07:40:52;;;;;;;;;;;;;;;-144.99;100.00;52615.25;5049737;28;20095;-67
2021/11/21 07:43:18;;;;;;;;;;;;;;;-144.99;100.00;52590.78;5048763;28;20058;-67
2021/11/21 07:45:45;;;;;;;;;;;;;;;-144.99;100.00;52635.63;5046857;28;20423;-67
2021/11/21 07:48:13;;;;;;;;;;;;;;;-144.99;100.00;52629.50;5047995;28;20027;-66
2021/11/21 07:50:39;;;;;;;;;;;;;;;-144.99;100.00;52621.34;5049440;28;19981;-66
2021/11/21 07:53:07;;;;;;;;;;;;;;;-144.99;100.00;52631.53;5055882;28;20370;-66
2021/11/21 07:55:33;;;;;;;;;;;;;;;-144.99;100.00;52627.47;5061935;28;19988;-67
2021/11/21 07:58:00;;;;;;;;;;;;;;;-144.99;100.00;52643.78;5061833;28;20027;-66
2021/11/21 08:00:26;;;;;;;;;;;;;;;-144.99;100.00;52643.78;5062387;28;19977;-67
2021/11/21 08:02:53;;;;;;;;;;;;;;;-144.99;100.00;52594.84;5063283;28;20000;-69
2021/11/21 08:05:21;;;;;;;;;;;;;;;-144.99;100.00;52615.25;5062324;28;19973;-70
2021/11/21 08:07:48;;;;;;;;;;;;;;;-144.99;100.00;52615.25;5063476;28;20015;-68
2021/11/21 08:10:15;;;;;;;;;;;;;;;-144.99;100.00;52570.38;5062424;28;19996;-69
2021/11/21 08:12:42;;;;;;;;;;;;;;;-144.99;100.00;52611.16;5061774;28;20000;-70
2021/11/21 08:15:09;;;;;;;;;;;;;;;-144.99;100.00;52660.09;5064921;28;19989;-68
2021/11/21 08:17:36;;;;;;;;;;;;;;;-144.99;100.00;52611.16;5064423;28;20004;-68
2021/11/21 08:20:02;;;;;;;;;;;;;;;-144.99;100.00;52582.63;5063064;28;19981;-68
2021/11/21 08:22:30;;;;;;;;;;;;;;;-144.99;100.00;52582.63;5066522;28;19950;-69
2021/11/21 08:24:57;;;;;;;;;;;;;;;-144.99;100.00;52611.16;5064319;28;19973;-69
2021/11/21 08:27:23;;;;;;;;;;;;;;;-144.99;100.00;52574.47;5064248;28;19977;-69
2021/11/21 08:29:50;;;;;;;;;;;;;;;-144.99;100.00;52611.16;5065089;28;20003;-68
2021/11/21 08:32:17;;;;;;;;;;;;;;;-144.99;100.00;52623.38;5067458;28;20044;-70
2021/11/21 08:34:44;;;;;;;;;;;;;;;-144.99;100.00;52637.66;5065696;28;20000;-68
2021/11/21 08:37:11;;;;;;;;;;;;;;;-144.99;100.00;52574.47;5065754;28;19981;-68
2021/11/21 08:39:39;;;;;;;;;;;;;;;-144.99;100.00;52643.78;5061921;28;19981;-68
2021/11/21 08:42:06;;;;;;;;;;;;;;;-144.99;100.00;52545.94;5073092;22;20079;-66
2021/11/21 08:44:33;;;;;;;;;;;;;;;-144.99;100.00;52598.94;5026606;28;19998;-64
2021/11/21 08:46:59;;;;;;;;;;;;;;;-144.99;100.00;52598.94;5027486;28;20001;-65
2021/11/21 08:49:26;;;;;;;;;;;;;;;-144.99;100.00;52586.69;5026841;28;20009;-65
2021/11/21 08:51:52;;;;;;;;;;;;;;;-144.99;100.00;52586.69;5022653;28;20004;-64
2021/11/21 08:54:19;;;;;;;;;;;;;;;-144.99;100.00;52611.16;5024363;28;20001;-65
2021/11/21 08:56:49;;;;;;;;;;;;;;;-144.99;100.00;52603.00;5021946;28;20400;-68
2021/11/21 08:59:16;;;;;;;;;;;;;;;-144.99;100.00;52552.03;5024582;28;20414;-66
2021/11/21 09:01:43;;;;;;;;;;;;;;;-144.99;100.00;52574.47;5021272;28;19977;-65
2021/11/21 09:04:10;;;;;;;;;;;;;;;-144.99;98.91;52607.09;5023708;28;20063;-66
2021/11/21 09:06:37;;;;;;;;;;;;;;;-144.99;97.71;52578.53;5022712;28;20021;-65
2021/11/21 09:09:04;;;;;;;;;;;;;;;-144.99;97.21;52598.94;5024656;28;20272;-66
2021/11/21 09:11:30;;;;;;;;;;;;;;;-144.99;95.17;52558.16;5019941;28;20330;-66
2021/11/21 09:13:58;;;;;;;;;;;;;;;-144.99;93.60;52566.31;5021784;28;20492;-66
2021/11/21 09:16:25;;;;;;;;;;;;;;;-144.99;90.16;52582.63;5023175;28;20023;-65
2021/11/21 09:18:51;;;;;;;;;;;;;;;-144.99;88.55;52584.66;5023353;28;20078;-66
2021/11/21 09:21:19;;;;;;;;;;;;;;;-144.99;86.93;52590.78;5022229;28;20025;-65
2021/11/21 09:23:46;;;;;;;;;;;;;;;-144.99;84.45;52562.25;5019701;28;20024;-68
2021/11/21 09:26:12;;;;;;;;;;;;;;;-144.99;85.05;52582.63;5022285;28;20031;-66
2021/11/21 09:28:39;;;;;;;;;;;;;;;-144.99;84.56;52556.13;5022036;28;19978;-65
2021/11/21 09:31:07;;;;;;;;;;;;;;;-144.99;84.17;52545.94;5022385;28;20442;-65
2021/11/21 09:33:34;;;;;;;;;;;;;;;-144.99;82.63;52525.56;5019929;28;19994;-65
2021/11/21 09:36:00;;;;;;;;;;;;;;;-144.99;81.79;52550.00;5024773;28;19981;-69
2021/11/21 09:38:27;;;;;;;;;;;;;;;-144.99;78.60;52529.63;5021813;28;19982;-67
2021/11/21 09:40:54;;;;;;;;;;;;;;;-144.99;76.82;52556.13;5024236;28;20017;-67
2021/11/21 09:43:21;;;;;;;;;;;;;;;-144.99;74.51;52517.41;5020850;28;20479;-67
2021/11/21 09:45:48;;;;;;;;;;;;;;;-144.99;74.00;52513.31;5022367;28;19977;-67
2021/11/21 09:48:16;;;;;;;;;;;;;;;-144.99;69.71;52468.47;5024386;28;20385;-66
2021/11/21 09:50:44;;;;;;;;;;;;;;;-144.99;67.98;52545.94;5019387;28;20052;-67
2021/11/21 09:53:11;;;;;;;;;;;;;;;-144.99;70.03;52541.84;5018831;28;20164;-68
2021/11/21 09:55:38;;;;;;;;;;;;;;;-144.99;75.09;52566.31;5019684;28;20061;-67
2021/11/21 09:58:05;;;;;;;;;;;;;;;-144.99;79.59;52586.69;5023133;28;20393;-70
2021/11/21 10:00:32;;;;;;;;;;;;;;;-144.99;86.03;52562.25;5022213;28;19993;-70
2021/11/21 10:03:00;;;;;;;;;;;;;;;-144.99;87.95;52641.72;5025148;28;20709;-70
2021/11/21 10:05:28;;;;;;;;;;;;;;;-144.99;89.10;52651.94;5024243;28;20043;-69
2021/11/21 10:08:02;;;;;;;;;;;;;;;-144.99;90.02;52611.16;5024986;28;19974;-69
2021/11/21 10:10:34;;;;;;;;;;;;;;;-144.99;91.93;52639.69;5028016;28;20495;-69
2021/11/21 10:13:00;;;;;;;;;;;;;;;-144.99;92.57;52619.31;5027311;28;19993;-69
2021/11/21 10:15:27;;;;;;;;;;;;;;;-144.99;92.05;52584.66;5023346;28;20051;-69
2021/11/21 10:17:55;;;;;;;;;;;;;;;-144.99;91.31;52550.00;5019867;28;19973;-70
2021/11/21 10:20:22;;;;;;;;;;;;;;;-144.99;87.24;52478.66;5031119;28;20019;-71
2021/11/21 10:22:52;;;;;;;;;;;;;;;-144.99;74.36;52439.94;5026638;28;20064;-71
2021/11/21 10:25:33;;;;;;;;;;;;;;;-144.99;67.63;52415.47;5026785;28;20043;-71
2021/11/21 10:28:02;;;;;;;;;;;;;;;-144.99;60.98;52372.69;5031995;28;20007;-71
2021/11/21 10:30:29;;;;;;;;;;;;;;;-144.99;57.44;52340.06;5033660;28;20351;-70
2021/11/21 10:33:01;;;;;;;;;;;;;;;-144.99;54.94;52338.03;5029518;28;20084;-70
2021/11/21 10:35:28;;;;;;;;;;;;;;;-144.99;52.17;52350.25;5027055;28;20040;-70
2021/11/21 10:37:57;;;;;;;;;;;;;;;-144.99;52.63;52346.19;5030860;28;20067;-71
2021/11/21 10:40:24;;;;;;;;;;;;;;;-144.99;52.43;52333.94;5026651;28;20040;-70
2021/11/21 10:42:51;;;;;;;;;;;;;;;-144.99;53.69;52309.50;5035178;28;19993;-71
2021/11/21 10:45:21;;;;;;;;;;;;;;;-144.99;54.63;52346.19;5018648;28;19980;-71
2021/11/21 10:47:49;;;;;;;;;;;;;;;-144.99;52.99;52362.50;5028147;28;19981;-71
2021/11/21 10:50:26;;;;;;;;;;;;;;;-144.99;53.24;52321.72;5024121;28;19981;-70
2021/11/21 10:52:53;;;;;;;;;;;;;;;-144.99;52.12;52317.66;5032924;28;20096;-70
2021/11/21 10:55:21;;;;;;;;;;;;;;;-144.99;50.49;52285.03;5032957;28;20024;-71
2021/11/21 10:57:48;;;;;;;;;;;;;;;-144.99;49.87;52350.25;5031194;28;19974;-70
2021/11/21 11:00:15;;;;;;;;;;;;;;;-144.99;50.70;52321.72;5021185;28;19973;-70
2021/11/21 11:02:42;;;;;;;;;;;;;;;-144.99;50.58;52303.38;5019295;28;20052;-71
2021/11/21 11:05:11;;;;;;;;;;;;;;;-144.99;51.85;52354.34;5032110;28;19977;-70
2021/11/21 11:07:40;;;;;;;;;;;;;;;-144.99;51.88;52319.69;5032853;28;20072;-71
2021/11/21 11:10:09;;;;;;;;;;;;;;;-144.99;51.10;52346.19;5032857;28;20071;-71
2021/11/21 11:12:37;;;;;;;;;;;;;;;-144.99;52.51;52305.41;5032712;28;20001;-70
2021/11/21 11:15:04;;;;;;;;;;;;;;;-144.99;50.63;52321.72;5031637;28;20033;-70
2021/11/21 11:17:31;;;;;;;;;;;;;;;-144.99;50.30;52289.13;5032684;28;19978;-70
2021/11/21 11:19:58;;;;;;;;;;;;;;;-144.99;47.21;52280.97;5031762;28;20036;-71
2021/11/21 11:22:25;;;;;;;;;;;;;;;-144.99;48.04;52313.56;5031545;28;19977;-70
2021/11/21 11:24:54;;;;;;;;;;;;;;;-144.99;48.57;52362.50;5032545;28;19981;-70
2021/11/21 11:27:25;;;;;;;;;;;;;;;-144.99;48.02;52280.97;5033148;28;20122;-70
2021/11/21 11:29:53;;;;;;;;;;;;;;;-144.99;48.71;52283.00;5032321;28;19981;-70
2021/11/21 11:32:31;;;;;;;;;;;;;;;-144.99;48.97;52313.56;5032385;28;20043;-70
2021/11/21 11:34:58;;;;;;;;;;;;;;;-144.99;47.74;52293.19;5018861;28;20043;-70
2021/11/21 11:37:39;;;;;;;;;;;;;;;-144.99;46.77;52250.38;5032188;28;20032;-70
2021/11/21 11:40:07;;;;;;;;;;;;;;;-144.99;47.61;52285.03;5028048;28;19981;-70
2021/11/21 11:42:35;;;;;;;;;;;;;;;-144.99;46.58;52268.72;5032094;28;20439;-69
2021/11/21 11:45:04;;;;;;;;;;;;;;;-144.99;45.05;52230.00;5031938;28;20029;-70
2021/11/21 11:47:31;;;;;;;;;;;;;;;-144.99;43.34;52236.13;5022464;28;19978;-71
2021/11/21 11:49:57;;;;;;;;;;;;;;;-144.99;41.71;52236.13;5033593;28;20019;-69
2021/11/21 11:52:42;;;;;;;;;;;;;;;-144.99;42.18;52256.50;5027265;28;19982;-69
2021/11/21 11:55:09;;;;;;;;;;;;;;;-144.99;42.53;52236.13;5013814;28;20092;-70
2021/11/21 11:57:37;;;;;;;;;;;;;;;-144.99;42.77;52301.34;5028135;28;19981;-69
2021/11/21 12:00:19;;;;;;;;;;;;;;;-144.99;43.25;52313.56;5031323;28;20469;-70
2021/11/21 12:02:47;;;;;;;;;;;;;;;-144.99;43.59;52293.19;5031217;28;20385;-69
2021/11/21 12:05:27;;;;;;;;;;;;;;;-144.99;43.73;52317.66;5030403;28;19974;-70
2021/11/21 12:08:11;;;;;;;;;;;;;;;-144.99;43.28;52236.13;5019534;28;20023;-70
2021/11/21 12:10:44;;;;;;;;;;;;;;;-144.99;43.71;52384.91;5031683;28;20036;-59
2021/11/21 12:13:11;;;;;;;;;;;;;;;-144.99;43.66;52366.56;5031223;28;20044;-59
2021/11/21 12:15:47;;;;;;;;;;;;;;;-144.99;45.09;52409.38;5026030;28;19997;-61
2021/11/21 12:18:15;;;;;;;;;;;;;;;-144.99;46.30;52435.88;5030533;28;20358;-60
2021/11/21 12:20:49;;;;;;;;;;;;;;;-144.99;45.73;52427.72;5027012;28;19973;-60
2021/11/21 12:23:36;;;;;;;;;;;;;;;-144.99;45.14;52411.41;5025622;28;20037;-59